Time;durP1;ratioP1;P1;durP2;ratioP2;P2;SDS_P1;SDS_P2;PMS_P1;PMS_P2;Temp;Humidity;BMP_temperature;BMP_pressure;BME280_temperature;BME280_humidity;BME280_pressure;Samples;Min_cycle;Max_cycle;Signal;HPM_P1;HPM_P2
2021/05/25 00:02:09;;;;;;;8.75;4.15;;;;;;;14.30;61.13;100310.53;4944293;29;20023;-57
2021/05/25 00:04:35;;;;;;;9.10;5.00;;;;;;;14.32;60.82;100318.31;4944421;29;20027;-57
2021/05/25 00:07:01;;;;;;;12.02;4.40;;;;;;;14.35;60.93;100325.19;4943905;29;20205;-57
2021/05/25 00:09:28;;;;;;;9.30;4.20;;;;;;;14.25;60.59;100319.38;4944441;29;20305;-57
2021/05/25 00:12:13;;;;;;;6.97;3.90;;;;;;;13.98;61.85;100327.03;4943300;29;20305;-57
2021/05/25 00:14:39;;;;;;;6.60;4.03;;;;;;;14.01;62.35;100328.69;4944514;29;20031;-56
2021/05/25 00:17:05;;;;;;;8.80;4.50;;;;;;;13.97;61.08;100333.97;4944104;29;20030;-57
2021/05/25 00:19:30;;;;;;;8.73;4.57;;;;;;;14.02;61.72;100335.59;4944340;29;20039;-57
2021/05/25 00:21:56;;;;;;;12.70;4.80;;;;;;;14.11;60.30;100324.97;4942897;29;20044;-57
2021/05/25 00:24:22;;;;;;;10.32;4.38;;;;;;;14.17;61.50;100322.19;4943877;29;20027;-57
2021/05/25 00:26:47;;;;;;;10.02;4.28;;;;;;;14.22;60.95;100320.31;4944243;29;20079;-57
2021/05/25 00:29:13;;;;;;;8.90;4.22;;;;;;;14.11;60.73;100331.03;4942786;29;20047;-58
2021/05/25 00:31:39;;;;;;;11.32;3.97;;;;;;;14.13;60.12;100329.22;4944283;28;20039;-58
2021/05/25 00:34:07;;;;;;;6.47;3.55;;;;;;;14.24;60.30;100335.94;4944046;29;20031;-58
2021/05/25 00:36:36;;;;;;;6.70;3.80;;;;;;;14.17;60.13;100323.97;4943812;29;20059;-58
2021/05/25 00:39:04;;;;;;;7.57;3.33;;;;;;;14.20;59.65;100334.28;4944390;29;20035;-56
2021/05/25 00:41:30;;;;;;;6.85;4.20;;;;;;;14.20;60.52;100339.50;4943764;29;20058;-57
2021/05/25 00:43:56;;;;;;;7.43;3.70;;;;;;;14.30;59.18;100336.59;4943966;29;20220;-57
2021/05/25 00:46:22;;;;;;;8.32;4.00;;;;;;;14.35;59.65;100338.22;4944218;29;20027;-56
2021/05/25 00:48:48;;;;;;;12.85;4.38;;;;;;;14.35;58.71;100339.09;4943059;29;20099;-56
2021/05/25 00:51:14;;;;;;;7.25;3.53;;;;;;;14.25;59.72;100340.22;4943326;29;20032;-56
2021/05/25 00:53:39;;;;;;;10.63;4.05;;;;;;;14.20;59.63;100348.16;4943712;29;20264;-56
2021/05/25 00:56:06;;;;;;;11.68;3.92;;;;;;;14.28;60.55;100348.81;4943919;29;20027;-57
2021/05/25 00:58:34;;;;;;;10.63;4.43;;;;;;;14.26;59.86;100345.38;4944022;29;20067;-57
2021/05/25 01:01:00;;;;;;;9.82;3.90;;;;;;;14.30;59.34;100347.03;4943922;29;20030;-56
2021/05/25 01:03:26;;;;;;;17.05;4.20;;;;;;;14.27;60.80;100349.72;4943763;29;20034;-56
2021/05/25 01:05:52;;;;;;;20.10;4.75;;;;;;;14.34;59.55;100340.00;4943944;29;20035;-56
2021/05/25 01:08:18;;;;;;;13.68;3.80;;;;;;;14.24;60.33;100344.59;4943222;29;20093;-56
2021/05/25 01:10:50;;;;;;;10.07;4.75;;;;;;;14.22;60.63;100346.38;4943545;29;20027;-57
2021/05/25 01:13:21;;;;;;;13.27;4.22;;;;;;;14.15;60.76;100340.47;4943712;29;20035;-57
2021/05/25 01:15:48;;;;;;;7.93;3.80;;;;;;;14.24;61.10;100341.97;4943726;29;20055;-57
2021/05/25 01:18:15;;;;;;;7.78;3.40;;;;;;;14.20;60.82;100345.56;4945705;29;20094;-56
2021/05/25 01:20:43;;;;;;;12.02;3.42;;;;;;;14.20;60.65;100362.94;4947695;29;20054;-57
2021/05/25 01:23:10;;;;;;;6.32;3.42;;;;;;;14.17;60.95;100352.63;4947466;29;20028;-57
2021/05/25 01:25:39;;;;;;;9.93;3.58;;;;;;;14.12;60.36;100358.78;4947142;29;20027;-57
2021/05/25 01:28:09;;;;;;;6.88;3.50;;;;;;;13.87;59.45;100305.63;4947116;29;20036;-58
2021/05/25 01:30:48;;;;;;;7.05;3.70;;;;;;;13.79;61.45;100304.03;4946930;29;20221;-58
2021/05/25 01:33:14;;;;;;;8.02;3.58;;;;;;;14.11;61.47;100364.03;4946866;29;20054;-56
2021/05/25 01:35:40;;;;;;;10.93;3.80;;;;;;;14.20;60.63;100363.78;4946722;29;20221;-56
2021/05/25 01:38:09;;;;;;;6.93;3.97;;;;;;;14.10;60.49;100344.09;4947049;29;20050;-56
2021/05/25 01:40:36;;;;;;;8.23;4.00;;;;;;;14.28;59.97;100369.66;4946842;29;20047;-58
2021/05/25 01:43:02;;;;;;;7.93;4.15;;;;;;;14.35;59.54;100362.56;4946940;29;20313;-56
2021/05/25 01:45:30;;;;;;;6.63;3.95;;;;;;;14.23;59.22;100329.84;4946909;29;20324;-56
2021/05/25 01:47:58;;;;;;;9.23;4.57;;;;;;;14.46;58.98;100359.66;4946963;28;20031;-56
2021/05/25 01:50:25;;;;;;;12.48;5.32;;;;;;;14.47;59.14;100361.38;4946890;29;20079;-56
2021/05/25 01:52:54;;;;;;;10.95;5.00;;;;;;;14.49;59.83;100365.66;4946626;29;20059;-56
2021/05/25 01:55:37;;;;;;;14.52;5.55;;;;;;;14.20;59.46;100303.88;4946854;28;20356;-56
2021/05/25 01:58:05;;;;;;;11.20;5.00;;;;;;;14.58;59.08;100372.38;4946408;29;20044;-56
2021/05/25 02:00:32;;;;;;;9.15;5.15;;;;;;;14.60;59.81;100373.16;4946810;28;20095;-56
2021/05/25 02:02:58;;;;;;;10.18;4.95;;;;;;;14.57;58.86;100375.03;4946727;29;20098;-56
2021/05/25 02:05:25;;;;;;;8.93;4.90;;;;;;;14.56;59.39;100368.09;4946411;29;20050;-56
2021/05/25 02:07:52;;;;;;;10.95;5.18;;;;;;;14.60;58.81;100381.00;4946517;29;20099;-56
2021/05/25 02:10:27;;;;;;;8.15;4.47;;;;;;;14.63;58.75;100369.66;4946454;29;20099;-56
2021/05/25 02:13:10;;;;;;;7.70;4.55;;;;;;;14.54;58.38;100354.25;4946236;29;20374;-56
2021/05/25 02:15:37;;;;;;;8.10;3.90;;;;;;;14.63;57.76;100375.72;4946229;29;20095;-56
2021/05/25 02:18:11;;;;;;;10.68;3.65;;;;;;;14.46;57.65;100372.69;4946266;29;20040;-56
2021/05/25 02:20:39;;;;;;;7.40;3.60;;;;;;;14.50;58.16;100363.88;4946212;29;20104;-56
2021/05/25 02:23:05;;;;;;;4.25;2.67;;;;;;;14.53;58.45;100371.63;4945768;29;20035;-56
2021/05/25 02:25:31;;;;;;;4.70;2.70;;;;;;;14.56;57.07;100378.50;4946316;29;20090;-56
2021/05/25 02:27:58;;;;;;;4.28;2.53;;;;;;;14.56;57.39;100378.50;4946030;29;20032;-56
2021/05/25 02:30:24;;;;;;;4.22;2.63;;;;;;;14.66;57.84;100380.00;4945693;29;20054;-55
2021/05/25 02:32:50;;;;;;;4.65;2.65;;;;;;;14.64;57.51;100385.25;4946008;29;20027;-56
2021/05/25 02:35:16;;;;;;;4.97;2.50;;;;;;;14.55;57.74;100384.63;4945694;29;20331;-56
2021/05/25 02:37:43;;;;;;;3.63;2.17;;;;;;;14.74;57.81;100387.63;4946126;29;20035;-56
2021/05/25 02:40:09;;;;;;;3.15;2.38;;;;;;;14.85;57.41;100390.81;4945901;29;20051;-56
2021/05/25 02:42:35;;;;;;;2.58;2.10;;;;;;;14.91;56.56;100393.22;4945805;29;20027;-56
2021/05/25 02:45:03;;;;;;;3.25;2.30;;;;;;;14.96;57.74;100393.97;4945940;29;20208;-57
2021/05/25 02:47:30;;;;;;;3.55;2.45;;;;;;;14.97;56.92;100389.59;4945937;29;20071;-56
2021/05/25 02:49:56;;;;;;;5.50;2.28;;;;;;;14.96;57.67;100398.31;4944942;29;20062;-57
2021/05/25 02:52:37;;;;;;;2.75;1.90;;;;;;;14.57;57.51;100333.31;4945393;29;20035;-56
2021/05/25 02:55:09;;;;;;;2.58;2.00;;;;;;;14.97;57.14;100387.84;4945422;29;20086;-57
2021/05/25 02:57:36;;;;;;;2.70;2.10;;;;;;;15.11;57.26;100386.59;4945567;29;20099;-56
2021/05/25 03:00:07;;;;;;;3.50;1.83;;;;;;;15.07;57.53;100403.25;4945391;29;20051;-57
2021/05/25 03:02:33;;;;;;;2.20;1.80;;;;;;;15.14;56.85;100397.78;4945289;29;20328;-57
2021/05/25 03:04:59;;;;;;;3.03;1.95;;;;;;;15.20;57.73;100401.97;4945437;29;20043;-57
2021/05/25 03:07:25;;;;;;;2.85;1.67;;;;;;;15.27;56.96;100403.50;4945064;29;20030;-56
2021/05/25 03:09:50;;;;;;;4.32;1.80;;;;;;;15.14;57.13;100387.34;4945403;29;20138;-57
2021/05/25 03:12:16;;;;;;;2.00;1.60;;;;;;;15.16;57.14;100405.56;4945153;29;20035;-57
2021/05/25 03:14:42;;;;;;;3.30;1.90;;;;;;;15.10;56.72;100396.16;4945272;29;20032;-57
2021/05/25 03:17:08;;;;;;;5.22;1.90;;;;;;;15.14;56.67;100394.34;4945017;29;20031;-57
2021/05/25 03:19:34;;;;;;;3.20;1.70;;;;;;;15.22;56.62;100400.19;4944887;29;20055;-57
2021/05/25 03:22:00;;;;;;;3.63;1.90;;;;;;;15.31;55.66;100401.69;4944682;29;20035;-58
2021/05/25 03:24:26;;;;;;;3.75;1.48;;;;;;;15.46;55.90;100401.22;4944976;29;20055;-57
2021/05/25 03:26:52;;;;;;;1.77;1.42;;;;;;;15.31;54.81;100376.41;4945217;29;20031;-57
2021/05/25 03:29:18;;;;;;;7.82;1.77;;;;;;;15.55;55.18;100405.31;4944971;29;20099;-56
2021/05/25 03:31:44;;;;;;;4.18;1.70;;;;;;;15.58;55.28;100402.59;4944872;29;20039;-56
2021/05/25 03:34:09;;;;;;;4.65;1.52;;;;;;;15.62;55.17;100403.34;4944913;29;20047;-56
2021/05/25 03:36:35;;;;;;;3.88;2.00;;;;;;;15.65;54.92;100404.13;4944861;29;20062;-56
2021/05/25 03:39:02;;;;;;;1.60;1.50;;;;;;;15.65;54.58;100392.81;4944893;29;20023;-57
2021/05/25 03:41:28;;;;;;;2.92;1.67;;;;;;;15.83;54.25;100412.31;4943869;29;20040;-56
2021/05/25 03:43:54;;;;;;;2.50;1.30;;;;;;;15.87;53.56;100409.53;4944665;29;20031;-57
2021/05/25 03:46:19;;;;;;;1.52;1.35;;;;;;;15.96;53.74;100411.03;4944685;29;20050;-56
2021/05/25 03:48:45;;;;;;;5.75;1.70;;;;;;;15.96;53.91;100407.53;4944664;29;20035;-57
2021/05/25 03:51:11;;;;;;;2.47;1.40;;;;;;;16.02;53.55;100404.75;4944319;29;20046;-56
2021/05/25 03:53:36;;;;;;;2.63;1.48;;;;;;;16.05;53.61;100413.31;4944373;29;20031;-57
2021/05/25 03:56:16;;;;;;;3.42;1.65;;;;;;;16.07;54.46;100410.66;4944557;29;20031;-58
2021/05/25 03:58:50;;;;;;;4.05;1.60;;;;;;;16.17;54.26;100419.06;4944480;29;20578;-59
2021/05/25 04:01:23;;;;;;;3.13;1.55;;;;;;;16.17;54.03;100421.69;4943726;29;20320;-58
2021/05/25 04:03:54;;;;;;;3.65;1.40;;;;;;;15.76;53.73;100362.00;4944166;29;20099;-58
2021/05/25 04:06:21;;;;;;;4.88;1.77;;;;;;;16.05;54.04;100421.16;4944444;29;20083;-57
2021/05/25 04:08:47;;;;;;;3.28;1.80;;;;;;;16.22;54.03;100425.00;4944175;29;20058;-57
2021/05/25 04:11:14;;;;;;;2.78;1.63;;;;;;;16.28;53.93;100424.78;4944158;29;20039;-57
2021/05/25 04:13:40;;;;;;;3.08;1.50;;;;;;;16.36;52.54;100428.00;4944570;29;20063;-57
2021/05/25 04:16:12;;;;;;;4.38;1.63;;;;;;;16.00;53.38;100373.44;4944166;29;20032;-57
2021/05/25 04:18:39;;;;;;;3.90;1.30;;;;;;;16.43;53.35;100435.63;4943962;29;20031;-57
2021/05/25 04:21:05;;;;;;;5.03;1.40;;;;;;;16.39;53.73;100442.75;4943837;29;20256;-58
2021/05/25 04:23:31;;;;;;;2.92;1.25;;;;;;;16.38;53.77;100435.81;4944016;29;20067;-58
2021/05/25 04:25:57;;;;;;;2.25;1.58;;;;;;;16.55;53.19;100437.84;4942557;29;20032;-57
2021/05/25 04:28:24;;;;;;;3.33;1.30;;;;;;;16.57;53.03;100436.03;4942314;29;20044;-58
2021/05/25 04:30:50;;;;;;;2.65;1.52;;;;;;;16.62;53.21;100435.88;4942311;29;20047;-57
2021/05/25 04:33:15;;;;;;;2.53;1.60;;;;;;;16.67;53.67;100442.63;4940709;29;20031;-58
2021/05/25 04:35:41;;;;;;;3.10;1.40;;;;;;;16.80;52.55;100442.22;4942662;29;20075;-58
2021/05/25 04:38:07;;;;;;;4.22;1.30;;;;;;;16.80;52.63;100443.09;4942580;29;20027;-58
2021/05/25 04:40:34;;;;;;;3.42;1.50;;;;;;;16.98;51.86;100449.47;4942419;29;20039;-59
2021/05/25 04:43:02;;;;;;;4.32;1.30;;;;;;;16.70;51.81;100397.22;4942561;29;20035;-58
2021/05/25 04:45:28;;;;;;;2.80;1.42;;;;;;;17.19;51.89;100449.59;4944032;29;20131;-58
2021/05/25 04:47:54;;;;;;;3.30;1.23;;;;;;;17.33;51.14;100446.47;4943480;29;20034;-57
2021/05/25 04:50:21;;;;;;;4.65;1.77;;;;;;;17.48;52.70;100451.13;4942955;29;20024;-58
2021/05/25 04:52:48;;;;;;;2.88;1.88;;;;;;;17.63;51.50;100449.69;4944870;29;20039;-58
2021/05/25 04:55:17;;;;;;;2.67;1.58;;;;;;;17.51;50.47;100413.50;4947197;29;20031;-58
2021/05/25 04:57:43;;;;;;;2.75;1.30;;;;;;;17.78;49.88;100445.63;4947595;29;20602;-57
2021/05/25 05:00:17;;;;;;;1.73;1.20;;;;;;;17.89;47.65;100392.78;4947589;29;20032;-58
2021/05/25 05:02:43;;;;;;;1.75;1.15;;;;;;;18.53;47.19;100454.03;4947220;29;20039;-58
2021/05/25 05:05:10;;;;;;;1.85;1.15;;;;;;;18.99;46.23;100441.56;4947566;29;20030;-58
2021/05/25 05:07:36;;;;;;;4.93;2.15;;;;;;;18.93;46.05;100441.84;4946897;29;20035;-58
2021/05/25 05:10:04;;;;;;;5.13;1.60;;;;;;;18.77;46.48;100429.34;4947454;29;20027;-57
2021/05/25 05:12:31;;;;;;;3.67;1.40;;;;;;;19.12;46.06;100447.94;4947041;29;20268;-56
2021/05/25 05:14:57;;;;;;;1.95;1.10;;;;;;;19.16;44.24;100442.59;4947238;29;20110;-57
2021/05/25 05:17:27;;;;;;;4.53;1.30;;;;;;;19.22;44.76;100445.78;4947277;28;20040;-58
2021/05/25 05:19:54;;;;;;;1.70;1.20;;;;;;;19.01;45.26;100447.59;4947176;29;20139;-57
2021/05/25 05:22:20;;;;;;;3.67;1.15;;;;;;;19.07;45.99;100435.94;4947073;29;20253;-57
2021/05/25 05:24:47;;;;;;;8.07;1.50;;;;;;;18.82;45.90;100458.00;4947025;29;20035;-57
2021/05/25 05:27:12;;;;;;;3.33;1.55;;;;;;;18.86;45.39;100451.72;4947236;29;20028;-57
2021/05/25 05:29:38;;;;;;;3.08;1.52;;;;;;;18.89;45.86;100437.63;4947295;29;20087;-58
2021/05/25 05:32:04;;;;;;;2.40;1.30;;;;;;;18.88;45.10;100455.13;4946482;29;20043;-57
2021/05/25 05:34:30;;;;;;;1.83;1.30;;;;;;;19.17;44.85;100458.28;4942797;29;20307;-58
2021/05/25 05:36:56;;;;;;;6.20;1.40;;;;;;;19.00;45.00;100458.16;4946497;28;20035;-58
2021/05/25 05:39:22;;;;;;;3.40;1.75;;;;;;;18.85;44.12;100449.16;4946970;29;20067;-58
2021/05/25 05:41:48;;;;;;;4.80;1.90;;;;;;;19.07;44.81;100447.31;4946820;29;20032;-57
2021/05/25 05:44:14;;;;;;;8.00;2.13;;;;;;;19.07;46.14;100452.56;4946661;29;20094;-58
2021/05/25 05:46:40;;;;;;;3.20;1.30;;;;;;;19.32;44.33;100454.09;4946847;29;20031;-57
2021/05/25 05:49:05;;;;;;;3.53;1.20;;;;;;;19.37;44.10;100454.75;4946511;29;20059;-58
2021/05/25 05:51:31;;;;;;;5.53;1.65;;;;;;;19.43;43.12;100457.06;4946785;29;20027;-58
2021/05/25 05:53:58;;;;;;;5.18;1.50;;;;;;;19.32;43.35;100456.72;4946132;29;20027;-57
2021/05/25 05:56:24;;;;;;;5.55;1.67;;;;;;;19.33;43.59;100460.22;4946342;29;20106;-57
2021/05/25 05:58:51;;;;;;;7.45;2.00;;;;;;;19.57;44.39;100455.59;4945859;29;20040;-58
2021/05/25 06:01:18;;;;;;;4.00;1.50;;;;;;;19.96;44.40;100462.56;4946453;29;20032;-57
2021/05/25 06:03:45;;;;;;;2.55;1.48;;;;;;;19.61;42.36;100460.66;4945333;29;20028;-58
2021/05/25 06:06:12;;;;;;;3.63;1.30;;;;;;;19.47;41.44;100461.28;4946157;29;20046;-57
2021/05/25 06:08:42;;;;;;;6.25;1.50;;;;;;;19.54;41.56;100414.56;4946354;29;20235;-57
2021/05/25 06:11:09;;;;;;;2.00;1.30;;;;;;;19.92;41.62;100468.88;4945130;29;20027;-56
2021/05/25 06:13:36;;;;;;;9.27;1.40;;;;;;;19.87;41.45;100466.47;4946348;29;20059;-56
2021/05/25 06:16:02;;;;;;;1.80;1.20;;;;;;;20.04;42.12;100468.31;4946353;29;20103;-57
2021/05/25 06:18:29;;;;;;;3.65;1.60;;;;;;;20.14;41.74;100468.72;4944795;29;20100;-57
2021/05/25 06:20:55;;;;;;;3.80;1.42;;;;;;;20.11;42.00;100472.34;4946069;29;20038;-57
2021/05/25 06:23:21;;;;;;;2.78;1.30;;;;;;;19.87;41.45;100463.84;4945727;29;20031;-57
2021/05/25 06:25:47;;;;;;;4.93;1.48;;;;;;;19.91;41.75;100462.78;4945788;29;20034;-57
2021/05/25 06:28:13;;;;;;;4.40;1.52;;;;;;;19.87;41.09;100465.63;4946191;29;20027;-57
2021/05/25 06:30:40;;;;;;;6.68;1.90;;;;;;;19.60;40.63;100464.19;4946036;29;20051;-58
2021/05/25 06:33:06;;;;;;;5.97;1.27;;;;;;;19.74;39.69;100453.03;4945299;29;20030;-58
2021/05/25 06:35:33;;;;;;;7.82;1.90;;;;;;;19.86;39.90;100458.66;4944764;29;20040;-57
2021/05/25 06:37:59;;;;;;;4.03;1.40;;;;;;;20.03;40.46;100460.50;4945676;29;20308;-57
2021/05/25 06:40:25;;;;;;;3.67;1.60;;;;;;;20.09;41.35;100468.91;4945433;29;20036;-58
2021/05/25 06:42:51;;;;;;;6.07;1.73;;;;;;;20.24;40.77;100456.81;4945549;29;20031;-57
2021/05/25 06:45:17;;;;;;;6.65;1.60;;;;;;;20.16;40.36;100459.78;4945683;28;20031;-58
2021/05/25 06:47:43;;;;;;;8.77;1.77;;;;;;;20.31;40.06;100449.47;4945267;29;20047;-58
2021/05/25 06:50:09;;;;;;;5.50;1.42;;;;;;;20.28;39.44;100458.38;4944167;29;20038;-58
2021/05/25 06:52:36;;;;;;;3.90;1.45;;;;;;;20.28;39.30;100454.84;4945340;29;20027;-58
2021/05/25 06:55:04;;;;;;;2.95;1.70;;;;;;;20.03;39.28;100444.72;4944915;28;20257;-58
2021/05/25 06:57:30;;;;;;;4.28;1.65;;;;;;;20.08;39.83;100442.69;4945239;29;20031;-58
2021/05/25 06:59:56;;;;;;;4.78;2.00;;;;;;;20.29;39.75;100453.94;4930473;29;20043;-58
2021/05/25 07:02:23;;;;;;;6.15;1.70;;;;;;;20.04;40.45;100404.31;4931719;29;20039;-59
2021/05/25 07:04:51;;;;;;;3.83;1.25;;;;;;;20.36;38.78;100442.19;4944097;29;20043;-58
2021/05/25 07:07:16;;;;;;;7.35;1.80;;;;;;;20.35;37.69;100441.34;4944786;29;20046;-58
2021/05/25 07:09:42;;;;;;;4.97;2.00;;;;;;;20.44;36.75;100436.56;4945244;29;20550;-58
2021/05/25 07:12:09;;;;;;;2.50;1.10;;;;;;;20.50;37.45;100442.34;4945099;29;20031;-58
2021/05/25 07:14:35;;;;;;;5.13;1.30;;;;;;;20.09;38.70;100442.63;4944954;29;20028;-57
2021/05/25 07:17:01;;;;;;;5.32;1.60;;;;;;;20.26;37.51;100439.16;4944879;29;20368;-57
2021/05/25 07:19:27;;;;;;;7.57;3.47;;;;;;;20.50;37.97;100438.88;4944737;29;20091;-57
2021/05/25 07:21:52;;;;;;;7.28;2.05;;;;;;;20.15;38.42;100431.81;4944827;29;20130;-58
2021/05/25 07:24:18;;;;;;;3.33;1.42;;;;;;;20.44;37.92;100431.28;4944977;29;20079;-57
2021/05/25 07:26:44;;;;;;;4.47;1.20;;;;;;;20.22;37.19;100426.25;4945206;29;20035;-57
2021/05/25 07:29:10;;;;;;;4.25;1.55;;;;;;;20.46;37.19;100430.25;4944590;29;20221;-58
2021/05/25 07:31:36;;;;;;;3.42;1.33;;;;;;;20.47;36.57;100433.75;4944764;29;20039;-58
2021/05/25 07:34:03;;;;;;;3.92;1.60;;;;;;;20.46;38.45;100438.16;4944834;29;20225;-58
2021/05/25 07:36:29;;;;;;;2.47;1.42;;;;;;;20.51;37.63;100422.16;4944145;28;20027;-58
2021/05/25 07:38:55;;;;;;;4.20;1.60;;;;;;;20.58;36.65;100414.78;4943085;29;20036;-58
2021/05/25 07:41:20;;;;;;;3.60;1.60;;;;;;;20.14;35.90;100416.13;4944402;29;20020;-59
2021/05/25 07:43:46;;;;;;;5.75;1.60;;;;;;;20.46;37.07;100421.53;4944131;29;20032;-58
2021/05/25 07:46:12;;;;;;;3.70;1.48;;;;;;;20.64;38.05;100417.94;4944257;29;20102;-58
2021/05/25 07:48:38;;;;;;;2.70;1.60;;;;;;;20.88;36.90;100411.50;4944313;29;20078;-58
2021/05/25 07:51:05;;;;;;;4.93;1.60;;;;;;;20.69;36.87;100412.47;4944082;29;20050;-57
2021/05/25 07:53:30;;;;;;;5.50;1.55;;;;;;;20.69;36.90;100423.88;4943059;29;20031;-57
2021/05/25 07:55:56;;;;;;;2.42;1.30;;;;;;;20.74;36.34;100404.34;4943928;29;20064;-57
2021/05/25 07:58:23;;;;;;;3.85;1.65;;;;;;;20.81;36.24;100403.94;4943836;29;20152;-57
2021/05/25 08:00:49;;;;;;;2.53;1.40;;;;;;;20.94;35.78;100408.56;4943991;29;20036;-57
2021/05/25 08:03:16;;;;;;;6.45;1.90;;;;;;;20.75;36.46;100409.53;4943642;29;20226;-57
2021/05/25 08:05:42;;;;;;;4.28;1.65;;;;;;;20.98;36.64;100412.75;4939387;29;20028;-56
2021/05/25 08:08:08;;;;;;;5.47;1.73;;;;;;;20.79;37.09;100410.22;4943469;29;20084;-57
2021/05/25 08:10:34;;;;;;;3.25;1.88;;;;;;;20.92;36.12;100415.69;4943893;29;20236;-58
2021/05/25 08:13:01;;;;;;;4.18;1.75;;;;;;;21.14;37.21;100405.72;4943714;29;20371;-57
2021/05/25 08:15:29;;;;;;;5.28;1.48;;;;;;;21.35;36.74;100410.75;4943621;29;20300;-57
2021/05/25 08:20:24;;;;;;;3.45;1.33;;;;;;;21.02;35.05;100406.34;4942450;29;20055;-57
2021/05/25 08:22:56;;;;;;;4.57;1.55;;;;;;;21.11;34.69;100397.13;4942804;29;20106;-57
2021/05/25 08:25:29;;;;;;;5.63;1.92;;;;;;;21.20;35.66;100401.88;4935100;29;20098;-57
2021/05/25 08:27:57;;;;;;;4.20;1.70;;;;;;;21.33;34.61;100412.59;4956588;28;20052;-57
2021/05/25 08:30:25;;;;;;;5.20;1.45;;;;;;;20.97;33.57;100416.31;4943301;29;20595;-56
2021/05/25 08:32:53;;;;;;;4.30;1.60;;;;;;;21.28;34.43;100412.88;4943314;29;20055;-57
2021/05/25 08:35:20;;;;;;;2.92;1.60;;;;;;;21.40;34.71;100413.13;4926608;29;20074;-56
2021/05/25 08:37:57;;;;;;;2.65;1.20;;;;;;;21.40;33.69;100413.97;4943428;29;20320;-57
2021/05/25 08:40:24;;;;;;;5.63;1.58;;;;;;;21.61;34.61;100419.03;4943531;29;20043;-58
2021/05/25 08:42:51;;;;;;;4.05;1.58;;;;;;;21.74;33.99;100416.56;4943613;29;20044;-57
2021/05/25 08:45:17;;;;;;;4.15;1.38;;;;;;;21.79;33.11;100414.50;4942890;29;20095;-58
2021/05/25 08:47:47;;;;;;;3.75;1.52;;;;;;;21.70;32.75;100421.97;4942191;28;20442;-57
2021/05/25 08:50:15;;;;;;;4.10;1.80;;;;;;;21.44;32.14;100368.06;4940074;29;20055;-58
2021/05/25 08:52:41;;;;;;;4.13;1.73;;;;;;;21.88;32.65;100414.84;4943596;29;20095;-59
2021/05/25 08:55:08;;;;;;;3.50;1.55;;;;;;;21.63;31.89;100402.19;4943026;29;20320;-58
2021/05/25 08:57:34;;;;;;;4.05;1.33;;;;;;;21.30;32.87;100405.72;4943420;29;20062;-58
2021/05/25 09:00:00;;;;;;;3.08;1.40;;;;;;;21.68;34.59;100415.13;4943201;29;20024;-58
2021/05/25 09:02:27;;;;;;;4.95;1.38;;;;;;;21.61;33.12;100403.22;4941266;29;20032;-57
2021/05/25 09:04:59;;;;;;;3.33;1.35;;;;;;;21.26;31.52;100400.72;4940329;29;20322;-60
2021/05/25 09:07:39;;;;;;;3.85;1.52;;;;;;;21.79;34.42;100415.38;4942937;29;20035;-58
2021/05/25 09:10:14;;;;;;;4.43;1.38;;;;;;;21.68;31.27;100372.94;4940450;29;20027;-58
2021/05/25 09:12:46;;;;;;;6.00;1.40;;;;;;;21.63;32.78;100367.06;4937800;29;20035;-58
2021/05/25 09:15:16;;;;;;;3.85;1.20;;;;;;;21.98;32.53;100398.50;4937658;29;20047;-61
2021/05/25 09:17:43;;;;;;;3.75;1.10;;;;;;;22.01;32.09;100409.69;4940957;29;20027;-58
2021/05/25 09:20:09;;;;;;;5.00;1.30;;;;;;;22.05;32.39;100402.47;4939693;29;20043;-58
2021/05/25 09:22:41;;;;;;;3.47;1.20;;;;;;;21.60;33.59;100349.63;4941436;28;20027;-58
2021/05/25 09:25:07;;;;;;;5.32;1.50;;;;;;;21.97;31.91;100397.63;4938032;29;20074;-58
2021/05/25 09:27:39;;;;;;;4.18;1.30;;;;;;;21.74;31.07;100392.84;4937853;29;20046;-58
2021/05/25 09:30:22;;;;;;;3.08;1.40;;;;;;;21.56;31.22;100421.91;4889310;28;20099;-58
2021/05/25 09:33:03;;;;;;;2.65;1.08;;;;;;;21.60;31.42;100407.63;4936795;29;20403;-58
2021/05/25 09:35:34;;;;;;;5.25;1.10;;;;;;;21.63;31.56;100394.25;4939243;29;20031;-58
2021/05/25 09:38:22;;;;;;;4.75;1.30;;;;;;;20.91;33.29;100399.03;4941201;29;20023;-59
2021/05/25 09:40:50;;;;;;;2.22;1.30;;;;;;;21.08;35.02;100358.63;4943696;29;20256;-58
2021/05/25 09:43:28;;;;;;;5.32;1.60;;;;;;;21.54;36.19;100393.00;4946314;29;20040;-58
2021/05/25 09:46:05;;;;;;;4.57;1.20;;;;;;;21.78;33.54;100411.03;4945805;29;20091;-57
2021/05/25 09:48:43;;;;;;;4.20;1.45;;;;;;;21.88;34.23;100404.28;4946513;29;20042;-58
2021/05/25 09:51:29;;;;;;;3.88;1.40;;;;;;;21.92;33.92;100396.19;4946345;29;20027;-57
2021/05/25 09:53:56;;;;;;;2.75;1.15;;;;;;;21.43;33.35;100399.78;4945636;29;20032;-57
2021/05/25 09:56:23;;;;;;;2.05;1.20;;;;;;;20.97;33.52;100409.25;4946323;29;20039;-57
2021/05/25 09:58:49;;;;;;;6.35;1.65;;;;;;;21.38;34.97;100403.50;4945283;29;20215;-57
2021/05/25 10:01:15;;;;;;;3.10;1.30;;;;;;;21.14;33.52;100405.72;4946084;29;20028;-57
2021/05/25 10:03:52;;;;;;;3.42;1.40;;;;;;;21.44;33.55;100402.34;4945711;29;20334;-57
2021/05/25 10:06:18;;;;;;;3.35;1.33;;;;;;;21.62;35.03;100397.88;4945464;29;20034;-57
2021/05/25 10:08:45;;;;;;;3.95;1.77;;;;;;;21.82;35.71;100391.47;4944558;29;20032;-57
2021/05/25 10:11:20;;;;;;;7.50;1.52;;;;;;;21.66;32.71;100393.25;4945901;29;20220;-58
2021/05/25 10:13:46;;;;;;;2.55;1.23;;;;;;;21.56;32.75;100387.63;4945533;29;20054;-58
2021/05/25 10:16:13;;;;;;;6.32;1.60;;;;;;;21.37;32.97;100379.88;4945709;29;20320;-57
2021/05/25 10:21:10;;;;;;;2.88;1.30;;;;;;;21.44;33.86;100394.41;4945309;29;20036;-57
2021/05/25 10:23:37;;;;;;;5.03;1.15;;;;;;;21.36;32.07;100388.72;4945976;29;20031;-58
2021/05/25 10:26:08;;;;;;;2.97;1.33;;;;;;;21.67;34.42;100379.97;4945852;29;20170;-58
2021/05/25 10:28:35;;;;;;;3.63;1.00;;;;;;;21.88;34.60;100377.06;4946000;29;20055;-58
2021/05/25 10:31:02;;;;;;;1.75;1.30;;;;;;;22.03;33.52;100373.56;4945354;29;20032;-57
2021/05/25 10:33:29;;;;;;;4.70;1.30;;;;;;;22.10;34.47;100371.38;4945133;29;20038;-58
2021/05/25 10:35:56;;;;;;;6.57;1.85;;;;;;;22.00;33.25;100364.94;4944675;29;20028;-58
2021/05/25 10:38:28;;;;;;;2.97;1.17;;;;;;;22.01;33.58;100337.63;4944776;28;20028;-60
2021/05/25 10:40:59;;;;;;;3.50;1.60;;;;;;;22.27;32.04;100393.31;4941960;29;20058;-58
2021/05/25 10:43:39;;;;;;;3.60;1.40;;;;;;;22.01;33.11;100367.50;4945021;29;20312;-58
2021/05/25 10:46:14;;;;;;;2.08;0.90;;;;;;;22.08;30.78;100383.00;4945126;29;20328;-58
2021/05/25 10:48:50;;;;;;;4.72;1.35;;;;;;;21.45;31.88;100335.50;4945075;28;20432;-58
2021/05/25 10:51:16;;;;;;;5.38;1.35;;;;;;;22.07;33.29;100384.75;4944032;29;20050;-58
2021/05/25 10:53:43;;;;;;;2.60;1.27;;;;;;;22.14;33.92;100380.81;4944496;28;20204;-56
2021/05/25 10:56:26;;;;;;;2.65;1.10;;;;;;;22.04;32.38;100356.75;4944997;29;20067;-58
2021/05/25 10:59:05;;;;;;;3.17;1.50;;;;;;;22.19;33.13;100368.22;4945419;29;20038;-58
2021/05/25 11:01:31;;;;;;;2.05;1.13;;;;;;;22.35;32.80;100375.25;4937074;29;20308;-59
2021/05/25 11:04:07;;;;;;;2.45;1.13;;;;;;;22.21;32.60;100370.75;4943648;29;20318;-59
2021/05/25 11:06:38;;;;;;;2.90;1.00;;;;;;;22.15;33.73;100365.84;4944374;29;20027;-58
2021/05/25 11:09:27;;;;;;;1.08;0.95;;;;;;;21.87;33.09;100359.53;4943023;29;20030;-58
2021/05/25 11:12:12;;;;;;;3.72;1.10;;;;;;;21.60;33.32;100359.34;4934749;29;20599;-60
2021/05/25 11:15:17;;;;;;;2.47;1.20;;;;;;;21.44;33.68;100354.88;4937467;29;20024;-57
2021/05/25 11:17:46;;;;;;;1.13;1.00;;;;;;;21.36;32.63;100349.19;4936530;29;20036;-58
2021/05/25 11:20:32;;;;;;;4.68;1.30;;;;;;;21.50;31.47;100351.91;4939104;29;20048;-58
2021/05/25 11:22:57;;;;;;;3.25;1.10;;;;;;;21.69;32.34;100356.16;4940378;29;20240;-59
2021/05/25 11:25:40;;;;;;;2.67;1.17;;;;;;;21.61;31.92;100353.13;4937083;29;20038;-58
2021/05/25 11:28:09;;;;;;;3.78;1.40;;;;;;;21.84;32.62;100357.91;4951672;29;20024;-60
2021/05/25 11:30:37;;;;;;;1.17;1.00;;;;;;;21.83;32.77;100358.88;4936081;29;20024;-59
2021/05/25 11:33:03;;;;;;;3.92;1.23;;;;;;;21.82;31.70;100351.91;4937980;29;20035;-58
2021/05/25 11:35:31;;;;;;;1.67;1.30;;;;;;;21.53;32.23;100306.97;4940665;29;20053;-58